Condor Express — 9V5373 — position and weather

sailwx.info

Track history (hours):
 
Tides and Currents Weather Stations Pressure Air Temp Water Temp Dewpoint Dewpoint Depression Visibility Wind Speed Wind Dir Waves Ship Positions

Condor Express

Operator: Condor Marine Services

Last reported at 2018-Feb-26 01:01 UTC. Time now 2018-Feb-26 01:17 UTC.
Position N 16°21' W 062°20'.

Length 235 m; draft 7.6 m.

Type: Cargo ship. MMSI: 563014500.

Date/timePositionNaut miles runAvg speedWind from/ knotsBaromVisibWave heightAir tempDewpointWater temp
2018-Feb-26 01:01N 16°21' W 062°20'713.5
2018-Feb-26 00:30N 16°24' W 062°14'713.1
2018-Feb-26 00:00N 16°27' W 062°07'612.9
2018-Feb-25 23:30N 16°30' W 062°01'612.6
2018-Feb-25 23:01N 16°33' W 061°56'612.3
2018-Feb-25 22:30N 16°36' W 061°50'612.4
2018-Feb-25 22:00N 16°39' W 061°44'612.3
2018-Feb-25 21:30N 16°42' W 061°39'612.3
2018-Feb-25 21:00N 16°45' W 061°33'713.1
2018-Feb-25 20:30N 16°48' W 061°27'713.5
2018-Feb-25 20:01N 16°51' W 061°21'713.5
2018-Feb-25 19:31N 16°55' W 061°15'713.4
2018-Feb-25 19:00N 16°58' W 061°09'713.4
2018-Feb-25 18:30N 17°01' W 061°02'713.2
2018-Feb-25 18:00N 17°03' W 060°56'  
2018-Feb-18 05:49N 35°46' W 025°36'412.5
2018-Feb-18 05:30N 35°47' W 025°31'612.4
2018-Feb-18 05:00N 35°51' W 025°25'612.5
2018-Feb-18 04:30N 35°54' W 025°18'612.3
2018-Feb-18 04:00N 35°57' W 025°12'612.4
2018-Feb-18 03:30N 35°60' W 025°05'612.2
2018-Feb-18 03:00N 36°03' W 024°58'612.4
2018-Feb-18 02:30N 36°06' W 024°52'612.6
2018-Feb-18 02:00N 36°10' W 024°45'612.5
2018-Feb-18 01:30N 36°13' W 024°39'612.8
2018-Feb-18 01:00N 36°16' W 024°32'612.7
2018-Feb-18 00:31N 36°19' W 024°25'612.7
2018-Feb-18 00:00N 36°22' W 024°18'612.6
2018-Feb-17 23:30N 36°26' W 024°12'612.7
2018-Feb-17 23:00N 36°29' W 024°05'612.8
2018-Feb-17 22:30N 36°32' W 023°58'612.4
2018-Feb-17 22:00N 36°35' W 023°51'612.1
2018-Feb-17 21:30N 36°38' W 023°45'612.3
2018-Feb-17 21:00N 36°42' W 023°38'712.5
2018-Feb-17 20:29N 36°45' W 023°31'612.3
2018-Feb-17 20:00N 36°48' W 023°25'  
Track history (hours):
 
Tides and Currents Weather Stations Pressure Air Temp Water Temp Dewpoint Dewpoint Depression Visibility Wind Speed Wind Dir Waves Ship Positions

Condor Express

Operator: Condor Marine Services

Last reported at 2018-Feb-26 01:01 UTC. Time now 2018-Feb-26 01:17 UTC.
Position N 16°21' W 062°20'.

Length 235 m; draft 7.6 m.

Type: Cargo ship. MMSI: 563014500.

Date/timePositionNaut miles runAvg speedWind from/ knotsBaromVisibWave heightAir tempDewpointWater temp
2018-Feb-26 01:01N 16°21' W 062°20'713.5
2018-Feb-26 00:30N 16°24' W 062°14'713.1
2018-Feb-26 00:00N 16°27' W 062°07'612.9
2018-Feb-25 23:30N 16°30' W 062°01'612.6
2018-Feb-25 23:01N 16°33' W 061°56'612.3
2018-Feb-25 22:30N 16°36' W 061°50'612.4
2018-Feb-25 22:00N 16°39' W 061°44'612.3
2018-Feb-25 21:30N 16°42' W 061°39'612.3
2018-Feb-25 21:00N 16°45' W 061°33'713.1
2018-Feb-25 20:30N 16°48' W 061°27'713.5
2018-Feb-25 20:01N 16°51' W 061°21'713.5
2018-Feb-25 19:31N 16°55' W 061°15'713.4
2018-Feb-25 19:00N 16°58' W 061°09'713.4
2018-Feb-25 18:30N 17°01' W 061°02'713.2
2018-Feb-25 18:00N 17°03' W 060°56'  
2018-Feb-18 05:49N 35°46' W 025°36'412.5
2018-Feb-18 05:30N 35°47' W 025°31'612.4
2018-Feb-18 05:00N 35°51' W 025°25'612.5
2018-Feb-18 04:30N 35°54' W 025°18'612.3
2018-Feb-18 04:00N 35°57' W 025°12'612.4
2018-Feb-18 03:30N 35°60' W 025°05'612.2
2018-Feb-18 03:00N 36°03' W 024°58'612.4
2018-Feb-18 02:30N 36°06' W 024°52'612.6
2018-Feb-18 02:00N 36°10' W 024°45'612.5
2018-Feb-18 01:30N 36°13' W 024°39'612.8
2018-Feb-18 01:00N 36°16' W 024°32'612.7
2018-Feb-18 00:31N 36°19' W 024°25'612.7
2018-Feb-18 00:00N 36°22' W 024°18'612.6
2018-Feb-17 23:30N 36°26' W 024°12'612.7
2018-Feb-17 23:00N 36°29' W 024°05'612.8
2018-Feb-17 22:30N 36°32' W 023°58'612.4
2018-Feb-17 22:00N 36°35' W 023°51'612.1
2018-Feb-17 21:30N 36°38' W 023°45'612.3
2018-Feb-17 21:00N 36°42' W 023°38'712.5
2018-Feb-17 20:29N 36°45' W 023°31'612.3
2018-Feb-17 20:00N 36°48' W 023°25'  

Dump ship's entire track history